createdAt,value
2022-09-26T00:01:44.837Z,0.50
2022-09-26T00:04:21.175Z,0.60
2022-09-26T00:06:52.014Z,0.73
2022-09-26T00:09:20.974Z,0.80
2022-09-26T00:11:49.553Z,0.65
2022-09-26T00:14:20.503Z,1.20
2022-09-26T00:16:50.815Z,0.73
2022-09-26T00:19:19.917Z,0.80
2022-09-26T00:21:48.680Z,1.00
2022-09-26T00:24:17.263Z,1.15
2022-09-26T00:26:45.894Z,0.80
2022-09-26T00:29:15.410Z,0.85
2022-09-26T00:31:46.264Z,0.90
2022-09-26T00:34:17.527Z,0.80
2022-09-26T00:36:46.074Z,0.73
2022-09-26T00:39:16.602Z,0.90
2022-09-26T00:41:45.638Z,1.10
2022-09-26T00:44:43.292Z,0.70
2022-09-26T00:47:34.011Z,0.63
2022-09-26T00:50:08.569Z,0.70
2022-09-26T00:52:40.995Z,0.60
2022-09-26T00:55:14.122Z,0.90
2022-09-26T00:57:46.479Z,0.60
2022-09-26T01:00:16.131Z,0.60
2022-09-26T01:02:46.781Z,0.70
2022-09-26T01:05:19.666Z,0.98
2022-09-26T01:07:48.514Z,0.70
2022-09-26T01:10:17.184Z,0.77
2022-09-26T01:12:46.068Z,1.05
2022-09-26T01:15:15.058Z,0.73
2022-09-26T01:17:45.552Z,0.80
2022-09-26T01:20:34.498Z,1.10
2022-09-26T01:23:58.307Z,1.00
2022-09-26T01:27:02.346Z,0.90
2022-09-26T01:30:06.135Z,0.90
2022-09-26T01:33:01.875Z,1.10
2022-09-26T01:35:47.263Z,1.05
2022-09-26T01:38:26.647Z,1.00
2022-09-26T01:41:22.935Z,1.00
2022-09-26T01:43:58.052Z,0.90
2022-09-26T01:46:33.499Z,0.65
2022-09-26T01:49:15.556Z,1.35
2022-09-26T01:51:50.579Z,1.25
2022-09-26T01:54:23.092Z,1.15
2022-09-26T01:56:54.518Z,1.00
2022-09-26T01:59:28.546Z,1.00
2022-09-26T02:02:07.607Z,1.20
2022-09-26T02:04:40.754Z,0.98
2022-09-26T02:07:13.824Z,0.93
2022-09-26T02:09:46.219Z,1.40
2022-09-26T02:12:20.131Z,0.85
2022-09-26T02:14:52.301Z,1.02
2022-09-26T02:17:29.839Z,1.25
2022-09-26T02:20:00.699Z,1.70
2022-09-26T02:22:32.513Z,0.97
2022-09-26T02:25:01.197Z,1.43
2022-09-26T02:27:30.266Z,1.58
2022-09-26T02:29:59.701Z,1.53
2022-09-26T02:32:31.966Z,1.30
2022-09-26T02:35:22.319Z,1.73
2022-09-26T02:37:51.350Z,1.23
2022-09-26T02:40:23.292Z,1.08
2022-09-26T02:43:02.876Z,0.93
2022-09-26T02:45:41.205Z,1.45
2022-09-26T02:48:28.912Z,1.83
2022-09-26T02:51:16.936Z,1.30
2022-09-26T02:54:02.515Z,1.70
2022-09-26T02:56:48.129Z,1.80
2022-09-26T03:06:59.207Z,1.70
2022-09-26T03:09:41.457Z,1.23
2022-09-26T03:12:11.191Z,1.65
2022-09-26T03:14:43.332Z,1.48
2022-09-26T03:17:12.674Z,1.65
2022-09-26T03:19:46.624Z,1.40
2022-09-26T03:22:18.047Z,1.27
2022-09-26T03:24:47.823Z,1.70
2022-09-26T03:27:17.771Z,1.92
2022-09-26T03:29:46.322Z,1.45
2022-09-26T03:32:14.886Z,0.90
2022-09-26T03:34:43.431Z,2.00
2022-09-26T03:37:12.363Z,1.80
2022-09-26T03:39:42.139Z,1.40
2022-09-26T03:42:10.627Z,1.70
2022-09-26T03:44:39.043Z,1.30
2022-09-26T03:47:07.627Z,1.60
2022-09-26T03:49:36.286Z,1.58
2022-09-26T03:52:04.841Z,1.73
2022-09-26T03:54:33.283Z,1.80
2022-09-26T03:57:03.089Z,1.92
2022-09-26T03:59:31.524Z,1.60
2022-09-26T04:02:00.029Z,1.80
2022-09-26T04:04:29.172Z,2.00
2022-09-26T04:06:57.621Z,1.45
2022-09-26T04:09:27.179Z,2.08
2022-09-26T04:11:55.977Z,1.40
2022-09-26T04:14:26.479Z,1.90
2022-09-26T04:16:54.978Z,2.10
2022-09-26T04:19:23.489Z,1.48
2022-09-26T04:21:52.170Z,1.17
2022-09-26T04:24:21.375Z,1.98
2022-09-26T04:26:49.941Z,1.13
2022-09-26T04:29:18.553Z,1.83
2022-09-26T04:31:48.465Z,1.00
2022-09-26T04:34:16.965Z,1.50
2022-09-26T04:36:45.474Z,0.82
2022-09-26T04:39:14.025Z,1.23
2022-09-26T04:41:42.612Z,1.20
2022-09-26T04:44:12.750Z,1.50
2022-09-26T04:46:41.181Z,1.88
2022-09-26T04:49:12.287Z,1.95
2022-09-26T04:51:40.869Z,1.63
2022-09-26T04:54:09.507Z,1.77
2022-09-26T04:56:37.963Z,1.50
2022-09-26T04:59:06.630Z,1.98
2022-09-26T05:01:35.352Z,1.20
2022-09-26T05:04:04.256Z,1.70
2022-09-26T05:06:34.088Z,2.00
2022-09-26T05:09:04.284Z,1.80
2022-09-26T05:11:33.257Z,1.73
2022-09-26T05:14:03.520Z,1.75
2022-09-26T05:16:32.222Z,1.57
2022-09-26T05:19:00.889Z,1.75
2022-09-26T05:21:29.326Z,1.70
2022-09-26T05:24:16.457Z,2.10
2022-09-26T05:26:47.703Z,1.83
2022-09-26T05:29:17.427Z,1.80
2022-09-26T05:31:46.280Z,1.50
2022-09-26T05:34:19.540Z,1.60
2022-09-26T05:36:48.514Z,2.20
2022-09-26T05:39:39.031Z,1.60
2022-09-26T05:42:10.703Z,1.90
2022-09-26T05:44:39.847Z,1.38
2022-09-26T05:47:08.711Z,2.05
2022-09-26T05:49:37.229Z,1.20
2022-09-26T05:52:05.738Z,1.60
2022-09-26T05:54:35.531Z,1.60
2022-09-26T05:57:04.032Z,1.52
2022-09-26T05:59:32.461Z,1.38
2022-09-26T06:02:00.992Z,1.35
2022-09-26T06:04:29.573Z,1.38
2022-09-26T06:06:58.048Z,1.42
2022-09-26T06:09:26.455Z,0.80
2022-09-26T06:11:56.712Z,1.05
2022-09-26T06:14:26.226Z,1.08
2022-09-26T06:16:54.807Z,1.50
2022-09-26T06:19:23.520Z,1.10
2022-09-26T06:21:52.159Z,1.38
2022-09-26T06:24:20.594Z,1.23
2022-09-26T06:26:49.094Z,1.02
2022-09-26T06:29:18.876Z,1.40
2022-09-26T06:31:47.426Z,1.40
2022-09-26T06:34:16.713Z,1.50
2022-09-26T06:36:46.986Z,0.80
2022-09-26T06:39:15.922Z,1.00
2022-09-26T06:41:44.753Z,1.33
2022-09-26T06:44:13.188Z,1.20
2022-09-26T06:46:43.053Z,1.08
2022-09-26T06:49:11.498Z,1.05
2022-09-26T06:51:39.941Z,1.23
2022-09-26T06:54:08.449Z,1.30
2022-09-26T06:56:36.964Z,1.30
2022-09-26T06:59:05.439Z,1.10
2022-09-26T07:01:34.094Z,1.20
2022-09-26T07:04:04.619Z,1.25
2022-09-26T07:06:33.093Z,1.20
2022-09-26T07:09:04.635Z,0.75
2022-09-26T07:11:56.371Z,1.17
2022-09-26T07:14:23.642Z,1.17
2022-09-26T07:16:52.559Z,1.25
2022-09-26T07:19:22.700Z,1.27
2022-09-26T07:21:51.281Z,0.82
2022-09-26T07:24:20.102Z,1.17
2022-09-26T07:26:48.599Z,1.50
2022-09-26T07:29:18.188Z,1.23
2022-09-26T07:31:46.687Z,1.40
2022-09-26T07:34:18.332Z,1.13
2022-09-26T07:36:48.802Z,0.95
2022-09-26T07:39:17.364Z,1.00
2022-09-26T07:41:46.778Z,1.30
2022-09-26T07:45:09.637Z,1.65
2022-09-26T07:47:21.530Z,1.20
2022-09-26T07:50:07.509Z,1.20
2022-09-26T07:52:37.329Z,1.17
2022-09-26T07:55:06.173Z,1.00
2022-09-26T07:57:35.462Z,1.30
2022-09-26T08:00:05.924Z,1.13
2022-09-26T08:02:35.864Z,0.93
2022-09-26T08:05:05.877Z,1.10
2022-09-26T08:07:36.843Z,0.82
2022-09-26T08:10:06.861Z,1.00
2022-09-26T08:12:39.876Z,1.05
2022-09-26T08:15:09.353Z,1.00
2022-09-26T08:17:38.360Z,1.02
2022-09-26T08:20:07.697Z,0.95
2022-09-26T08:22:37.514Z,1.00
2022-09-26T08:25:07.762Z,1.10
2022-09-26T08:27:36.637Z,1.10
2022-09-26T08:30:06.130Z,0.80
2022-09-26T08:32:34.860Z,1.33
2022-09-26T08:35:03.344Z,1.20
2022-09-26T08:37:32.058Z,0.80
2022-09-26T08:40:01.989Z,1.05
2022-09-26T08:42:41.802Z,1.10
2022-09-26T08:45:48.759Z,1.00
2022-09-26T08:48:29.199Z,0.90
2022-09-26T08:51:06.630Z,1.08
2022-09-26T08:53:43.421Z,0.80
2022-09-26T08:56:20.809Z,0.95
2022-09-26T08:58:53.182Z,1.17
2022-09-26T09:01:27.896Z,1.00
2022-09-26T09:04:02.544Z,0.90
2022-09-26T09:06:31.153Z,1.00
2022-09-26T09:08:59.930Z,0.95
2022-09-26T09:11:51.317Z,1.07
2022-09-26T09:14:34.545Z,1.00
2022-09-26T09:17:16.267Z,1.00
2022-09-26T09:19:54.127Z,1.08
2022-09-26T09:22:44.898Z,1.10
2022-09-26T09:25:19.615Z,0.70
2022-09-26T09:28:08.652Z,1.20
2022-09-26T09:30:42.383Z,0.95
2022-09-26T09:33:15.879Z,1.30
2022-09-26T09:35:48.248Z,1.20
2022-09-26T09:38:19.587Z,1.15
2022-09-26T09:40:53.898Z,1.20
2022-09-26T09:43:31.237Z,1.00
2022-09-26T09:46:04.316Z,1.05
2022-09-26T09:48:32.904Z,0.93
2022-09-26T09:51:13.346Z,1.27
2022-09-26T09:53:59.969Z,1.02
2022-09-26T09:56:41.020Z,1.02
2022-09-26T09:59:24.333Z,1.10
2022-09-26T10:02:01.102Z,0.95
2022-09-26T10:04:37.704Z,1.00
2022-09-26T10:07:06.380Z,1.10
2022-09-26T10:09:40.911Z,1.13
2022-09-26T10:12:17.035Z,1.13
2022-09-26T10:14:54.984Z,1.30
2022-09-26T10:17:24.697Z,1.30
2022-09-26T10:19:53.277Z,1.52
2022-09-26T10:22:29.377Z,1.30
2022-09-26T10:25:04.106Z,1.40
2022-09-26T10:27:37.785Z,1.42
2022-09-26T10:30:25.802Z,1.40
2022-09-26T10:32:57.060Z,1.13
2022-09-26T10:35:29.597Z,1.53
2022-09-26T10:38:03.252Z,1.40
2022-09-26T10:40:48.425Z,1.40
2022-09-26T10:43:30.586Z,1.50
2022-09-26T10:46:08.939Z,1.40
2022-09-26T10:48:48.388Z,1.35
2022-09-26T10:51:26.896Z,1.25
2022-09-26T10:54:03.908Z,1.33
2022-09-26T10:56:38.294Z,1.50
2022-09-26T10:59:09.945Z,1.50
2022-09-26T11:01:44.158Z,1.40
2022-09-26T11:04:36.021Z,1.30
2022-09-26T11:07:06.959Z,1.40
2022-09-26T11:09:35.921Z,1.23
2022-09-26T11:12:23.976Z,1.20
2022-09-26T11:14:56.928Z,1.13
2022-09-26T11:17:44.866Z,1.20
2022-09-26T11:20:32.395Z,1.30
2022-09-26T11:23:08.673Z,1.25
2022-09-26T11:25:50.129Z,1.25
2022-09-26T11:28:25.690Z,1.30
2022-09-26T11:30:59.113Z,1.30
2022-09-26T11:33:29.011Z,1.23
2022-09-26T11:36:11.055Z,1.02
2022-09-26T11:38:47.539Z,1.20
2022-09-26T11:41:42.074Z,1.10
2022-09-26T11:44:52.934Z,1.30
2022-09-26T11:48:08.810Z,0.95
2022-09-26T11:50:49.565Z,1.00
2022-09-26T11:53:49.164Z,1.00
2022-09-26T11:56:49.988Z,1.10
2022-09-26T11:59:38.342Z,1.13
2022-09-26T12:02:31.964Z,1.10
2022-09-26T12:05:13.833Z,1.10
2022-09-26T12:07:49.583Z,1.00
2022-09-26T12:10:35.146Z,1.00
2022-09-26T12:13:34.384Z,1.10
2022-09-26T12:16:12.666Z,1.13
2022-09-26T12:18:53.445Z,1.08
2022-09-26T12:21:33.102Z,1.00
2022-09-26T12:24:13.175Z,0.90
2022-09-26T12:26:53.515Z,1.17
2022-09-26T12:29:33.211Z,1.03
2022-09-26T12:32:22.764Z,1.00
2022-09-26T12:35:08.212Z,1.00
2022-09-26T12:37:52.901Z,0.90
2022-09-26T12:40:36.230Z,1.10
2022-09-26T12:43:31.832Z,0.80
2022-09-26T12:46:15.940Z,1.15
2022-09-26T12:49:01.964Z,0.70
2022-09-26T12:51:42.869Z,0.95
2022-09-26T12:54:49.793Z,1.20
2022-09-26T12:57:31.038Z,1.02
2022-09-26T13:00:12.623Z,1.20
2022-09-26T13:03:09.818Z,1.02
2022-09-26T13:06:12.898Z,1.35
2022-09-26T13:08:53.333Z,0.73
2022-09-26T13:11:32.230Z,1.10
2022-09-26T13:14:34.917Z,1.10
2022-09-26T13:17:10.223Z,1.10
2022-09-26T13:19:44.619Z,1.30
2022-09-26T13:22:32.898Z,1.13
2022-09-26T13:25:08.026Z,1.10
2022-09-26T13:27:41.813Z,1.10
2022-09-26T13:30:18.693Z,1.08
2022-09-26T13:33:00.175Z,0.90
2022-09-26T13:35:31.840Z,1.20
2022-09-26T13:38:15.960Z,1.30
2022-09-26T13:40:51.736Z,0.85
2022-09-26T13:43:36.552Z,0.90
2022-09-26T13:46:14.383Z,1.00
2022-09-26T13:48:51.923Z,1.30
2022-09-26T13:51:26.184Z,1.20
2022-09-26T13:54:05.054Z,1.13
2022-09-26T13:56:55.996Z,1.20
2022-09-26T13:59:50.177Z,0.90
2022-09-26T14:02:28.961Z,0.90
2022-09-26T14:05:28.628Z,0.90
2022-09-26T14:08:14.744Z,1.08
2022-09-26T14:10:53.636Z,1.15
2022-09-26T14:13:35.505Z,0.98
2022-09-26T14:16:05.801Z,1.10
2022-09-26T14:18:59.414Z,1.17
2022-09-26T14:21:41.252Z,1.10
2022-09-26T14:24:43.494Z,1.20
2022-09-26T14:27:42.940Z,1.20
2022-09-26T14:30:29.098Z,1.10
2022-09-26T14:33:03.260Z,0.98
2022-09-26T14:35:35.956Z,1.60
2022-09-26T14:38:10.466Z,1.30
2022-09-26T14:40:40.024Z,1.10
2022-09-26T14:43:15.141Z,1.50
2022-09-26T14:45:49.745Z,1.40
2022-09-26T14:48:32.170Z,1.20
2022-09-26T14:51:05.048Z,1.20
2022-09-26T14:53:40.295Z,1.50
2022-09-26T14:56:12.101Z,1.20
2022-09-26T14:58:50.054Z,1.58
2022-09-26T15:01:29.705Z,1.20
2022-09-26T15:04:02.959Z,1.42
2022-09-26T15:06:39.761Z,1.13
2022-09-26T15:09:11.880Z,1.30
2022-09-26T15:11:45.527Z,1.30
2022-09-26T15:14:24.167Z,1.20
2022-09-26T15:16:56.419Z,1.15
2022-09-26T15:19:29.184Z,1.50
2022-09-26T15:22:02.301Z,1.27
2022-09-26T15:24:33.414Z,1.35
2022-09-26T15:27:09.254Z,1.30
2022-09-26T15:29:43.240Z,1.27
2022-09-26T15:32:16.895Z,1.30
2022-09-26T15:34:46.821Z,1.00
2022-09-26T15:37:22.157Z,1.48
2022-09-26T15:39:51.160Z,1.02
2022-09-26T15:42:48.495Z,1.48
2022-09-26T15:45:30.362Z,1.40
2022-09-26T15:48:00.428Z,1.10
2022-09-26T15:50:34.482Z,1.27
2022-09-26T15:53:20.133Z,1.20
2022-09-26T15:55:54.287Z,1.35
2022-09-26T15:58:32.749Z,1.20
2022-09-26T16:01:01.780Z,1.27
2022-09-26T16:03:41.404Z,1.50
2022-09-26T16:06:22.071Z,1.30
2022-09-26T16:08:56.455Z,1.10
2022-09-26T16:11:25.718Z,1.20
2022-09-26T16:13:56.464Z,1.35
2022-09-26T16:16:32.016Z,1.10
2022-09-26T16:19:03.961Z,1.45
2022-09-26T16:21:36.575Z,1.65
2022-09-26T16:24:29.488Z,1.35
2022-09-26T16:26:58.307Z,1.80
2022-09-26T16:29:34.120Z,1.70
2022-09-26T16:32:03.975Z,1.60
2022-09-26T16:34:33.050Z,1.80
2022-09-26T16:37:01.528Z,1.50
2022-09-26T16:39:32.415Z,1.60
2022-09-26T16:42:05.704Z,1.38
2022-09-26T16:44:38.379Z,1.60
2022-09-26T16:47:18.910Z,1.50
2022-09-26T16:49:48.828Z,1.73
2022-09-26T16:52:29.367Z,1.38
2022-09-26T16:55:01.135Z,1.30
2022-09-26T16:57:31.496Z,1.40
2022-09-26T17:00:19.852Z,1.40
2022-09-26T17:02:48.814Z,1.55
2022-09-26T17:05:19.627Z,1.80
2022-09-26T17:07:49.698Z,1.17
2022-09-26T17:10:21.914Z,1.40
2022-09-26T17:12:52.933Z,1.63
2022-09-26T17:15:27.237Z,1.58
2022-09-26T17:17:56.912Z,1.85
2022-09-26T17:20:26.885Z,1.55
2022-09-26T17:22:55.715Z,1.60
2022-09-26T17:25:25.994Z,1.33
2022-09-26T17:27:59.617Z,1.70
2022-09-26T17:30:28.225Z,1.30
2022-09-26T17:32:58.926Z,1.70
2022-09-26T17:35:31.918Z,1.60
2022-09-26T17:38:01.582Z,1.48
2022-09-26T17:40:33.031Z,1.52
2022-09-26T17:43:02.234Z,1.53
2022-09-26T17:45:33.988Z,1.45
2022-09-26T17:48:05.229Z,1.50
2022-09-26T17:50:35.528Z,1.50
2022-09-26T17:53:04.933Z,1.30
2022-09-26T17:55:34.705Z,1.30
2022-09-26T17:58:09.377Z,1.48
2022-09-26T18:00:41.072Z,1.45
2022-09-26T18:03:18.927Z,1.17
2022-09-26T18:05:47.874Z,1.25
2022-09-26T18:08:26.649Z,1.00
2022-09-26T18:10:58.819Z,1.20
2022-09-26T18:13:31.426Z,1.00
2022-09-26T18:16:00.775Z,0.85
2022-09-26T18:18:30.965Z,1.20
2022-09-26T18:21:03.892Z,0.77
2022-09-26T18:23:41.622Z,1.00
2022-09-26T18:26:20.540Z,0.98
2022-09-26T18:28:48.964Z,0.82
2022-09-26T18:31:17.673Z,1.00
2022-09-26T18:33:46.092Z,0.90
2022-09-26T18:36:15.084Z,1.05
2022-09-26T18:38:43.473Z,0.95
2022-09-26T18:41:15.769Z,1.10
2022-09-26T18:43:44.285Z,0.85
2022-09-26T18:46:16.880Z,0.82
2022-09-26T18:48:46.531Z,1.20
2022-09-26T18:51:15.449Z,1.02
2022-09-26T18:53:44.384Z,1.10
2022-09-26T18:56:31.645Z,0.83
2022-09-26T18:59:00.869Z,0.90
2022-09-26T19:01:32.002Z,0.98
2022-09-26T19:04:03.592Z,0.87
2022-09-26T19:06:36.181Z,1.00
2022-09-26T19:09:07.598Z,0.70
2022-09-26T19:11:37.390Z,0.90
2022-09-26T19:14:14.388Z,0.80
2022-09-26T19:16:43.139Z,1.10
2022-09-26T19:19:12.042Z,0.82
2022-09-26T19:21:42.431Z,1.00
2022-09-26T19:24:21.068Z,0.70
2022-09-26T19:26:54.666Z,1.00
2022-09-26T19:29:29.547Z,1.05
2022-09-26T19:31:58.492Z,1.20
2022-09-26T19:34:32.352Z,1.00
2022-09-26T19:37:03.195Z,1.10
2022-09-26T19:39:32.417Z,0.90
2022-09-26T19:42:02.203Z,1.00
2022-09-26T19:44:30.606Z,1.20
2022-09-26T19:46:59.989Z,1.00
2022-09-26T19:49:31.203Z,1.30
2022-09-26T19:52:01.102Z,1.00
2022-09-26T19:54:30.061Z,1.30
2022-09-26T19:56:58.829Z,1.08
2022-09-26T19:59:28.588Z,1.48
2022-09-26T20:01:57.175Z,1.30
2022-09-26T20:04:25.835Z,0.90
2022-09-26T20:06:54.249Z,1.13
2022-09-26T20:09:22.664Z,1.07
2022-09-26T20:11:51.064Z,0.77
2022-09-26T20:14:25.649Z,1.07
2022-09-26T20:16:58.897Z,1.45
2022-09-26T20:19:35.361Z,1.00
2022-09-26T20:22:06.058Z,1.08
2022-09-26T20:24:37.007Z,0.73
2022-09-26T20:27:08.510Z,1.33
2022-09-26T20:29:51.493Z,1.08
2022-09-26T20:32:21.572Z,1.00
2022-09-26T20:34:50.041Z,0.90
2022-09-26T20:37:19.882Z,1.10
2022-09-26T20:39:48.541Z,1.20
2022-09-26T20:42:19.906Z,0.88
2022-09-26T20:44:51.112Z,1.00
2022-09-26T20:47:22.850Z,1.35
2022-09-26T20:49:55.753Z,1.40
2022-09-26T20:52:26.053Z,1.48
2022-09-26T20:54:55.260Z,1.63
2022-09-26T20:57:24.233Z,2.03
2022-09-26T20:59:52.746Z,2.07
2022-09-26T21:02:29.377Z,2.08
2022-09-26T21:05:00.197Z,2.17
2022-09-26T21:07:29.993Z,2.03
2022-09-26T21:09:58.945Z,2.08
2022-09-26T21:12:27.386Z,1.60
2022-09-26T21:14:55.817Z,2.13
2022-09-26T21:17:29.286Z,1.80
2022-09-26T21:19:57.920Z,2.90
2022-09-26T21:22:28.373Z,2.83
2022-09-26T21:24:56.880Z,3.53
2022-09-26T21:27:26.185Z,2.75
2022-09-26T21:29:54.609Z,3.55
2022-09-26T21:32:24.773Z,2.22
2022-09-26T21:34:59.131Z,3.20
2022-09-26T21:37:27.644Z,3.13
2022-09-26T21:39:56.258Z,3.13
2022-09-26T21:42:26.904Z,3.28
2022-09-26T21:44:58.949Z,3.43
2022-09-26T21:47:28.062Z,3.50
2022-09-26T21:49:58.005Z,2.25
2022-09-26T21:52:35.650Z,2.55
2022-09-26T21:55:06.253Z,1.90
2022-09-26T21:57:39.690Z,2.03
2022-09-26T22:00:10.056Z,1.88
2022-09-26T22:02:41.294Z,1.80
2022-09-26T22:05:13.198Z,2.10
2022-09-26T22:07:41.674Z,1.52
2022-09-26T22:10:10.639Z,2.00
2022-09-26T22:12:39.030Z,2.15
2022-09-26T22:15:08.459Z,1.88
2022-09-26T22:17:36.997Z,1.70
2022-09-26T22:20:06.515Z,1.83
2022-09-26T22:22:38.220Z,1.60
2022-09-26T22:25:07.687Z,1.60
2022-09-26T22:27:36.283Z,1.60
2022-09-26T22:30:05.124Z,1.25
2022-09-26T22:32:33.658Z,1.38
2022-09-26T22:35:02.158Z,1.45
2022-09-26T22:37:30.758Z,1.50
2022-09-26T22:40:00.531Z,1.10
2022-09-26T22:42:28.937Z,1.27
2022-09-26T22:44:57.431Z,1.42
2022-09-26T22:47:25.916Z,1.07
2022-09-26T22:49:54.329Z,0.93
2022-09-26T22:52:22.753Z,1.10
2022-09-26T22:54:51.136Z,1.08
2022-09-26T22:57:20.889Z,1.20
2022-09-26T22:59:49.341Z,1.13
2022-09-26T23:02:17.832Z,1.20
2022-09-26T23:04:48.894Z,1.10
2022-09-26T23:07:19.301Z,1.20
2022-09-26T23:09:47.749Z,1.10
2022-09-26T23:12:16.557Z,0.93
2022-09-26T23:14:46.311Z,0.98
2022-09-26T23:17:14.828Z,1.50
2022-09-26T23:22:19.868Z,1.10
2022-09-26T23:24:48.282Z,0.85
2022-09-26T23:27:16.737Z,0.98
2022-09-26T23:29:46.541Z,1.20
2022-09-26T23:32:14.989Z,1.05
2022-09-26T23:34:43.400Z,1.20
2022-09-26T23:37:11.829Z,0.85
2022-09-26T23:39:40.220Z,1.00
2022-09-26T23:42:09.188Z,0.98
2022-09-26T23:44:37.610Z,0.70
2022-09-26T23:47:07.993Z,1.08
2022-09-26T23:49:36.387Z,0.80
2022-09-26T23:52:04.808Z,0.80
2022-09-26T23:54:33.194Z,0.80
2022-09-26T23:57:01.894Z,0.70
2022-09-26T23:59:30.304Z,1.10
